Terminal Aerodrome Forecast
Issued by NWS

Home | Current Version | Previous Version | Text Only | Print | Product List | Glossary On
Versions: 1 2 3 4 5 6 7 8 9 10 11 12 13 14 15 16 17 18 19 20 21 22 23 24 25 26 27 28 29 30 31 32 33 34 35 36 37
000
FTAK31 PAFA 202342
TAFAGA
TAF
PAGA 202342Z 2100/2124 02007G15KT P6SM BKN040
     FM210400 03005KT P6SM VCSH SCT030 OVC040
      TEMPO 2104/2108 2SM -SHSN BKN020 OVC035
     FM210800 06008KT 5SM -SN BKN020 OVC040=

USA.gov is the U.S. government's official web portal to all federal, state and local government web resources and services.